Flight Track Log - Related Links

Times and Time Zones

All times are in EDT time to prevent confusion due to time zone crossing. See the AAL1459 flight status page for this flight to view local times or setup timezone preferences in your user account.

Time Position Orientation Groundspeed Altitude Reporting Facility
EDT Latitude Longitude Course Direction KTS MPH feet Rate Location/Type
Sun 06:31:53 PM 41.9500 -87.9000 270° West 183 211 2,500  Level Chicago TRACON
Sun 06:33:00 PM 41.9667 -88.1862 270° West  Level FlightAware Approximate
Sun 06:34:00 PM 41.9667 -88.3294 270° West  Level FlightAware Approximate
Sun 06:34:04 PM 41.9325 -88.0506 261° West 245 282 7,300  Level Chicago Center
Sun 06:35:00 PM 41.9667 -88.4725 270° West  Level FlightAware Approximate
Sun 06:35:06 PM 41.9564 -88.1411 290° West 256 295 9,600  Level Chicago Center
Sun 06:36:00 PM 41.9668 -88.6156 270° West  Level FlightAware Approximate
Sun 06:36:08 PM 41.9903 -88.2658 290° West 295 339 11,300  Level Chicago Center
Sun 06:37:00 PM 41.9667 -88.7610 270° West  Level FlightAware Approximate
Sun 06:37:10 PM 42.0247 -88.3878 291° West 344 396 13,500  Level Chicago Center
Sun 06:38:12 PM 42.0511 -88.5161 286° West 361 415 16,000 2,371 Climbing Chicago Center
Sun 06:39:14 PM 42.0650 -88.6508 278° West 366 421 18,400 2,806 Climbing Chicago Center
Sun 06:40:16 PM 42.0994 -88.8069 287° West 367 422 21,800 2,710 Climbing Chicago Center
Sun 06:41:18 PM 42.1236 -88.9275 285° West 366 421 24,000 2,032 Climbing Chicago Center
Sun 06:42:20 PM 42.1431 -89.0600 281° West 364 419 26,000 1,597 Climbing Chicago Center
Sun 06:43:22 PM 42.1497 -89.2247 273° West 378 435 27,300 1,016 Climbing Chicago Center
Sun 06:44:24 PM 42.1575 -89.3769 274° West 406 467 28,100 968 Climbing Chicago Center
Sun 06:45:26 PM 42.1675 -89.5353 275° West 424 488 29,300 1,452 Climbing Chicago Center
Sun 06:46:28 PM 42.1769 -89.6953 275° West 429 494 31,100 1,694 Climbing Chicago Center
Sun 06:47:30 PM 42.1856 -89.8486 274° West 413 475 32,800 1,500 Climbing Chicago Center
Sun 06:48:32 PM 42.1700 -90.0200 263° West 409 471 34,200 1,113 Climbing Chicago Center
Sun 06:49:34 PM 42.1478 -90.1694 259° West 410 472 35,100 823 Climbing Chicago Center
Sun 06:50:36 PM 42.1467 -90.3225 269° West 418 481 35,900 435 Climbing Chicago Center
Sun 06:51:38 PM 42.1686 -90.4722 281° West 413 475 36,000 48 Climbing Chicago Center
Sun 06:52:40 PM 42.1894 -90.6250 280° West 415 478 36,000  Level Chicago Center
Sun 06:53:42 PM 42.2081 -90.7769 279° West 414 476 36,000  Level Chicago Center
Sun 06:54:44 PM 42.2319 -90.9583 280° West 412 474 36,000  Level Chicago Center
Sun 06:55:46 PM 42.2522 -91.1067 281° West 406 467 36,000  Level Chicago Center
Sun 06:56:48 PM 42.2694 -91.2592 279° West 408 470 36,000  Level Chicago Center
Sun 06:57:50 PM 42.2883 -91.4086 280° West 406 467 36,000  Level Chicago Center
Sun 06:58:52 PM 42.3064 -91.5586 279° West 406 467 36,000  Level Chicago Center
Sun 06:59:54 PM 42.3258 -91.7092 280° West 406 467 36,000  Level Chicago Center
Sun 07:00:56 PM 42.3475 -91.8914 279° West 409 471 36,000  Level Chicago Center
Sun 07:01:59 PM 42.3656 -92.0433 279° West 411 473 36,000  Level Chicago Center
Sun 07:02:41 PM 42.3764 -92.1344 279° West 408 470 36,000  Level Minneapolis Center
Sun 07:03:42 PM 42.3947 -92.2833 280° West 404 465 36,000  Level Minneapolis Center
Sun 07:04:44 PM 42.4133 -92.4614 278° West 402 463 36,000  Level Minneapolis Center
Sun 07:05:46 PM 42.4169 -92.6111 272° West 400 460 36,000  Level Minneapolis Center
Sun 07:06:48 PM 42.4208 -92.7614 272° West 402 463 36,000  Level Minneapolis Center
Sun 07:07:50 PM 42.4258 -92.9097 273° West 397 457 36,000  Level Minneapolis Center
Sun 07:08:52 PM 42.4306 -93.0611 272° West 404 465 36,000  Level Minneapolis Center
Sun 07:09:54 PM 42.4347 -93.2419 272° West 402 463 36,000  Level Minneapolis Center
Sun 07:10:56 PM 42.4397 -93.3931 273° West 403 464 36,000  Level Minneapolis Center
Sun 07:11:57 PM 42.4422 -93.5431 271° West 403 464 36,000  Level Minneapolis Center
Sun 07:12:59 PM 42.4464 -93.6911 272° West 398 458 36,000  Level Minneapolis Center
Sun 07:14:01 PM 42.4489 -93.8406 271° West 400 460 36,000  Level Minneapolis Center
Sun 07:15:03 PM 42.4522 -93.9894 272° West 400 460 36,000  Level Minneapolis Center
Sun 07:16:05 PM 42.4544 -94.1644 271° West 393 452 36,000  Level Minneapolis Center
Sun 07:17:07 PM 42.4578 -94.3089 272° West 386 444 36,000  Level Minneapolis Center
Sun 07:18:09 PM 42.4603 -94.4547 271° West 386 444 36,000  Level Minneapolis Center
Sun 07:19:11 PM 42.4633 -94.6008 272° West 389 448 36,000  Level Minneapolis Center
Sun 07:20:12 PM 42.4639 -94.7458 270° West 389 448 36,000  Level Minneapolis Center
Sun 07:21:14 PM 42.4661 -94.8911 271° West 388 447 36,000  Level Minneapolis Center
Sun 07:22:16 PM 42.4675 -95.0650 271° West 384 442 36,000  Level Minneapolis Center
Sun 07:23:18 PM 42.4689 -95.2114 271° West 388 447 36,000  Level Minneapolis Center
Sun 07:24:20 PM 42.4703 -95.3597 271° West 393 452 36,000  Level Minneapolis Center
Sun 07:25:22 PM 42.4711 -95.5069 270° West 393 452 36,000  Level Minneapolis Center
Sun 07:26:24 PM 42.4714 -95.6556 270° West 394 453 36,000  Level Minneapolis Center
Sun 07:27:25 PM 42.4722 -95.8039 270° West 395 455 36,000  Level Minneapolis Center
Sun 07:28:27 PM 42.4733 -95.9833 271° West 398 458 36,000  Level Minneapolis Center
Sun 07:29:29 PM 42.4731 -96.1319 270° West 397 457 36,000  Level Minneapolis Center
Sun 07:30:31 PM 42.4728 -96.2811 270° West 398 458 36,000  Level Minneapolis Center
Sun 07:31:32 PM 42.4728 -96.3992 270° West 394 453 36,000  Level Minneapolis Center
Sun 07:32:35 PM 42.4722 -96.5744 270° West 390 449 36,000  Level Minneapolis Center
Sun 07:33:36 PM 42.4717 -96.7219 270° West 393 452 36,000  Level Minneapolis Center
Sun 07:34:38 PM 42.4708 -96.9000 270° West 393 452 36,000  Level Minneapolis Center
Sun 07:35:40 PM 42.4697 -97.0500 269° West 396 456 36,000  Level Minneapolis Center
Sun 07:36:42 PM 42.4678 -97.2003 269° West 399 459 36,000  Level Minneapolis Center
Sun 07:37:44 PM 42.4672 -97.3478 270° West 395 455 36,000  Level Minneapolis Center
Sun 07:38:45 PM 42.4653 -97.4972 269° West 398 458 36,000  Level Minneapolis Center
Sun 07:39:47 PM 42.4639 -97.6472 269° West 398 458 36,000  Level Minneapolis Center
Sun 07:40:49 PM 42.4614 -97.7983 269° West 399 459 36,000  Level Minneapolis Center
Sun 07:41:50 PM 42.4589 -97.9775 269° West 404 465 36,000  Level Minneapolis Center
Sun 07:42:52 PM 42.4564 -98.1278 269° West 400 460 36,000  Level Minneapolis Center
Sun 07:43:54 PM 42.4539 -98.2764 269° West 398 458 36,000 49 Level Minneapolis Center
Sun 07:44:55 PM 42.4508 -98.4239 268° West 394 453 36,100 293 Climbing Minneapolis Center
Sun 07:45:57 PM 42.4486 -98.5714 269° West 393 452 36,600 435 Climbing Minneapolis Center
Sun 07:46:59 PM 42.4753 -98.7122 284° West 396 456 37,000 178 Climbing Minneapolis Center
Sun 07:48:12 PM 42.5492 -98.8656 303° West 404 465 37,000  Level Minneapolis Center
Sun 07:49:14 PM 42.6203 -99.0175 302° West 401 461 37,000  Level Minneapolis Center
Sun 07:50:16 PM 42.6817 -99.1439 303° West 401 461 37,000 194 Level Minneapolis Center
Sun 07:51:18 PM 42.7431 -99.2728 303° West 405 466 37,400 488 Climbing Minneapolis Center
Sun 07:52:19 PM 42.7978 -99.4033 300° West 400 460 38,000 293 Climbing Minneapolis Center
Sun 07:53:21 PM 42.7953 -99.5539 269° West 396 456 38,000  Level Minneapolis Center
Sun 07:54:30 PM 42.7842 -99.7189 265° West 395 455 38,000  Level Denver Center
Sun 07:55:32 PM 42.7750 -99.8692 265° West 396 456 38,000  Level Denver Center
Sun 07:56:34 PM 42.7636 -100.0464 265° West 393 452 38,000  Level Denver Center
Sun 07:57:36 PM 42.7556 -100.1933 266° West 389 448 38,000  Level Denver Center
Sun 07:58:38 PM 42.7458 -100.3400 265° West 391 450 38,000  Level Denver Center
Sun 07:59:40 PM 42.7361 -100.4853 265° West 387 445 38,000  Level Denver Center
Sun 08:00:42 PM 42.7272 -100.6383 266° West 389 448 38,000  Level Denver Center
Sun 08:01:44 PM 42.7181 -100.8000 266° West 386 444 38,000  Level Denver Center
Sun 08:02:45 PM 42.7092 -100.9389 265° West 386 444 38,000  Level Denver Center
Sun 08:03:47 PM 42.6994 -101.1017 265° West 387 445 38,000  Level Denver Center
Sun 08:04:49 PM 42.6903 -101.2419 265° West 390 449 38,000  Level Denver Center
Sun 08:05:51 PM 42.6819 -101.3814 265° West 389 448 38,000  Level Denver Center
Sun 08:06:53 PM 42.6708 -101.5447 265° West 390 449 38,000  Level Denver Center
Sun 08:07:55 PM 42.6614 -101.6856 265° West 390 449 38,000  Level Denver Center
Sun 08:08:57 PM 42.6500 -101.8389 264° West 393 452 38,000  Level Denver Center
Sun 08:09:59 PM 42.6394 -102.0042 265° West 394 453 38,000  Level Denver Center
Sun 08:11:00 PM 42.6289 -102.1472 264° West 397 457 38,000  Level Denver Center
Sun 08:12:02 PM 42.6167 -102.3108 264° West 392 451 38,000  Level Denver Center
Sun 08:13:04 PM 42.6061 -102.4514 264° West 391 450 38,000  Level Denver Center
Sun 08:14:06 PM 42.5939 -102.6131 264° West 387 445 38,000  Level Denver Center
Sun 08:15:08 PM 42.5839 -102.7542 265° West 390 449 38,000  Level Denver Center
Sun 08:16:10 PM 42.5700 -102.9183 264° West 393 452 38,000  Level Denver Center
Sun 08:17:12 PM 42.5597 -103.0594 264° West 394 453 38,000  Level Denver Center
Sun 08:18:14 PM 42.5478 -103.2019 264° West 397 457 38,000  Level Denver Center
Sun 08:19:16 PM 42.5339 -103.3656 263° West 393 452 38,000  Level Denver Center
Sun 08:20:18 PM 42.5228 -103.5056 264° West 390 449 38,000  Level Denver Center
Sun 08:21:20 PM 42.5086 -103.6703 263° West 392 451 38,000  Level Denver Center
Sun 08:22:22 PM 42.4975 -103.8064 264° West 382 440 38,000  Level Denver Center
Sun 08:23:24 PM 42.4831 -103.9667 263° West 383 441 38,000  Level Denver Center
Sun 08:24:26 PM 42.4708 -104.1022 263° West 379 436 38,000  Level Denver Center
Sun 08:25:28 PM 42.4569 -104.2631 263° West 383 441 38,000  Level Denver Center
Sun 08:26:30 PM 42.4439 -104.4006 263° West 383 441 38,000  Level Denver Center
Sun 08:27:32 PM 42.4311 -104.5386 263° West 382 440 38,000  Level Denver Center
Sun 08:28:34 PM 42.4158 -104.7019 263° West 386 444 38,000  Level Denver Center
Sun 08:29:36 PM 42.4031 -104.8397 263° West 384 442 38,000  Level Denver Center
Sun 08:30:38 PM 42.3875 -104.9994 263° West 383 441 38,000  Level Denver Center
Sun 08:31:40 PM 42.3739 -105.1381 262° West 387 445 38,000  Level Denver Center
Sun 08:32:42 PM 42.3603 -105.2772 263° West 390 449 38,000  Level Denver Center
Sun 08:33:44 PM 42.3439 -105.4386 262° West 387 445 38,000  Level Denver Center
Sun 08:34:46 PM 42.3303 -105.5753 262° West 385 443 38,000  Level Denver Center
Sun 08:35:48 PM 42.3142 -105.7322 262° West 377 434 38,000  Level Denver Center
Sun 08:36:50 PM 42.3003 -105.8675 262° West 380 437 38,000 48 Level Denver Center
Sun 08:37:52 PM 42.2836 -106.0225 262° West 373 429 38,100  Climbing Denver Center
Sun 08:38:54 PM 42.2683 -106.1569 261° West 378 435 38,000 -48 Descending Denver Center
Sun 08:39:56 PM 42.2528 -106.3119 262° West 374 430 38,000  Level Denver Center
Sun 08:40:58 PM 42.2378 -106.4458 261° West 376 433 38,000  Level Denver Center
Sun 08:42:00 PM 42.2214 -106.5917 261° West 374 430 38,000  Level Denver Center
Sun 08:43:02 PM 42.2056 -106.7247 261° West 375 432 38,000  Level Denver Center
Sun 08:44:04 PM 42.1886 -106.8772 262° West 371 427 38,000  Level Denver Center
Sun 08:45:06 PM 42.1739 -107.0064 261° West 366 421 38,000  Level Denver Center
Sun 08:46:08 PM 42.1558 -107.1569 261° West 364 419 38,000  Level Denver Center
Sun 08:47:10 PM 42.1419 -107.2856 262° West 363 418 38,000  Level Denver Center
Sun 08:48:12 PM 42.1236 -107.4350 261° West 363 418 38,000  Level Denver Center
Sun 08:49:14 PM 42.1075 -107.5636 260° West 365 420 38,000  Level Denver Center
Sun 08:50:09 PM 42.0917 -107.6950 261° West 369 425 38,000  Level Salt Lake Center
Sun 08:51:11 PM 42.0756 -107.8247 261° West 368 423 38,000  Level Salt Lake Center
Sun 08:52:12 PM 42.0567 -107.9783 261° West 374 430 38,000  Level Salt Lake Center
Sun 08:53:14 PM 42.0425 -108.1114 262° West 376 433 38,000  Level Salt Lake Center
Sun 08:54:15 PM 42.0247 -108.2647 261° West 371 427 38,000  Level Salt Lake Center
Sun 08:55:17 PM 42.0064 -108.3928 259° West 367 422 38,000  Level Salt Lake Center
Sun 08:56:18 PM 41.9872 -108.5422 260° West 367 422 38,000  Level Salt Lake Center
Sun 08:57:20 PM 41.9697 -108.6736 260° West 372 428 38,000  Level Salt Lake Center
Sun 08:58:21 PM 41.9489 -108.8269 260° West 375 432 38,000  Level Salt Lake Center
Sun 08:59:23 PM 41.9322 -108.9572 260° West 373 429 38,000  Level Salt Lake Center
Sun 09:00:24 PM 41.9144 -109.0881 260° West 373 429 38,000  Level Salt Lake Center
Sun 09:01:25 PM 41.8933 -109.2397 259° West 373 429 38,000  Level Salt Lake Center
Sun 09:02:27 PM 41.8764 -109.3686 260° West 371 427 38,000  Level Salt Lake Center
Sun 09:03:28 PM 41.8550 -109.5200 259° West 372 428 38,000  Level Salt Lake Center
Sun 09:04:30 PM 41.8367 -109.6506 259° West 374 430 38,000  Level Salt Lake Center
Sun 09:05:31 PM 41.8161 -109.8008 260° West 370 426 38,000  Level Salt Lake Center
Sun 09:06:33 PM 41.7975 -109.9300 259° West 369 425 38,000  Level Salt Lake Center
Sun 09:07:34 PM 41.7794 -110.0578 259° West 367 422 38,000  Level Salt Lake Center
Sun 09:08:35 PM 41.7572 -110.2061 259° West 366 421 38,000 49 Level Salt Lake Center
Sun 09:09:37 PM 41.7392 -110.3328 259° West 365 420 38,100  Climbing Salt Lake Center
Sun 09:10:38 PM 41.7178 -110.4811 259° West 363 418 38,000 -49 Descending Salt Lake Center
Sun 09:11:39 PM 41.6978 -110.6108 258° West 372 428 38,000  Level Salt Lake Center
Sun 09:12:41 PM 41.6764 -110.7614 259° West 370 426 38,000  Level Salt Lake Center
Sun 09:13:42 PM 41.6556 -110.8900 258° West 370 426 38,000 49 Level Salt Lake Center
Sun 09:14:43 PM 41.6378 -111.0078 259° West 364 419 38,100  Climbing Salt Lake Center
Sun 09:15:45 PM 41.6133 -111.1653 258° West 363 418 38,000 -49 Descending Salt Lake Center
Sun 09:16:46 PM 41.5933 -111.2933 258° West 356 410 38,000  Level Salt Lake Center
Sun 09:17:47 PM 41.5739 -111.4214 259° West 356 410 38,000  Level Salt Lake Center
Sun 09:18:49 PM 41.5531 -111.5514 258° West 360 414 38,000  Level Salt Lake Center
Sun 09:19:50 PM 41.5325 -111.6803 258° West 360 414 38,000  Level Salt Lake Center
Sun 09:20:51 PM 41.5122 -111.8067 258° West 353 406 38,000  Level Salt Lake Center
Sun 09:21:53 PM 41.4931 -111.9322 259° West 350 403 38,000  Level Salt Lake Center
Sun 09:22:54 PM 41.4675 -112.0867 258° West 357 411 38,000  Level Salt Lake Center
Sun 09:23:55 PM 41.4464 -112.2133 258° West 354 407 38,000  Level Salt Lake Center
Sun 09:24:57 PM 41.4258 -112.3428 258° West 359 413 38,000  Level Salt Lake Center
Sun 09:25:58 PM 41.4044 -112.4711 258° West 357 411 38,000  Level Salt Lake Center
Sun 09:26:59 PM 41.3833 -112.5986 258° West 356 410 38,000  Level Salt Lake Center
Sun 09:28:01 PM 41.3628 -112.7264 258° West 355 409 38,000  Level Salt Lake Center
Sun 09:29:02 PM 41.3403 -112.8542 257° West 357 411 38,000  Level Salt Lake Center
Sun 09:30:03 PM 41.3183 -112.9819 257° West 357 411 38,000  Level Salt Lake Center
Sun 09:31:05 PM 41.2922 -113.1358 257° West 358 412 38,000  Level Salt Lake Center
Sun 09:32:06 PM 41.2683 -113.2644 256° West 360 414 38,000  Level Salt Lake Center
Sun 09:33:08 PM 41.2456 -113.3933 257° West 360 414 38,000  Level Salt Lake Center
Sun 09:34:09 PM 41.2236 -113.5222 257° West 360 414 38,000  Level Salt Lake Center
Sun 09:35:10 PM 41.2014 -113.6508 257° West 359 413 38,000  Level Salt Lake Center
Sun 09:36:12 PM 41.1761 -113.7797 255° West 361 415 38,000  Level Salt Lake Center
Sun 09:37:13 PM 41.1558 -113.9086 258° West 360 414 38,000  Level Salt Lake Center
Sun 09:38:14 PM 41.1314 -114.0369 256° West 359 413 38,000  Level Salt Lake Center
Sun 09:39:16 PM 41.1019 -114.1881 256° West 355 409 38,000  Level Salt Lake Center
Sun 09:40:17 PM 41.0800 -114.3175 257° West 360 414 38,000  Level Salt Lake Center
Sun 09:41:19 PM 41.0511 -114.4508 254° West 372 428 38,000  Level Salt Lake Center
Sun 09:42:20 PM 41.0119 -114.5814 248° West 382 440 38,000  Level Salt Lake Center
Sun 09:43:21 PM 40.9686 -114.7044 245° Southwest 385 443 38,000  Level Salt Lake Center
Sun 09:44:23 PM 40.9258 -114.8475 248° West 377 434 38,000  Level Salt Lake Center
Sun 09:45:24 PM 40.8858 -114.9706 247° West 380 437 38,000  Level Salt Lake Center
Sun 09:46:25 PM 40.8383 -115.1192 247° West 392 451 38,000  Level Salt Lake Center
Sun 09:48:28 PM 40.7600 -115.3664 247° West 378 435 38,000  Level Salt Lake Center
Sun 09:49:30 PM 40.7136 -115.5056 246° West 371 427 38,000  Level Salt Lake Center
Sun 09:50:31 PM 40.6758 -115.6253 247° West 370 426 38,000  Level Salt Lake Center
Sun 09:51:32 PM 40.6300 -115.7653 247° West 372 428 38,000  Level Salt Lake Center
Sun 09:52:34 PM 40.5886 -115.8875 246° West 380 437 38,000  Level Salt Lake Center
Sun 09:53:35 PM 40.5478 -116.0128 247° West 388 447 38,000  Level Salt Lake Center
Sun 09:54:36 PM 40.4994 -116.1589 247° West 391 450 38,000  Level Salt Lake Center
Sun 09:55:38 PM 40.4592 -116.2847 247° West 390 449 38,000  Level Salt Lake Center
Sun 09:56:39 PM 40.4172 -116.4081 246° West 387 445 38,000  Level Salt Lake Center
Sun 09:57:40 PM 40.3697 -116.5508 246° West 383 441 38,000  Level Salt Lake Center
Sun 09:58:42 PM 40.3286 -116.6708 246° West 376 433 38,000  Level Salt Lake Center
Sun 09:59:43 PM 40.2861 -116.7950 246° West 381 438 38,000 49 Level Salt Lake Center
Sun 10:00:44 PM 40.2367 -116.9431 246° West 390 449 38,100  Climbing Salt Lake Center
Sun 10:01:46 PM 40.1931 -117.0700 246° West 395 455 38,000 -49 Descending Salt Lake Center
Sun 10:02:47 PM 40.1522 -117.1897 246° West 379 436 38,000  Level Salt Lake Center
Sun 10:03:48 PM 40.1031 -117.3325 246° West 383 441 38,000  Level Salt Lake Center
Sun 10:04:50 PM 40.0592 -117.4586 246° West 394 453 38,000  Level Salt Lake Center
Sun 10:05:51 PM 40.0081 -117.6025 245° Southwest 391 450 38,000 -98 Level Salt Lake Center
Sun 10:06:52 PM 39.9644 -117.7297 246° West 400 460 37,800 -558 Descending Salt Lake Center
Sun 10:08:00 PM 39.9072 -117.8931 245° Southwest 403 464 36,800 -1,442 Descending Oakland Center
Sun 10:09:01 PM 39.8606 -118.0244 245° Southwest 400 460 34,700 -2,557 Descending Oakland Center
Sun 10:10:02 PM 39.8133 -118.1583 245° Southwest 407 468 31,600 -2,683 Descending Oakland Center
Sun 10:11:04 PM 39.7664 -118.2914 245° Southwest 406 467 29,200 -2,293 Descending Oakland Center
Sun 10:12:05 PM 39.7206 -118.4186 245° Southwest 391 450 26,900 -2,164 Descending Oakland Center
Sun 10:13:06 PM 39.6769 -118.5394 245° Southwest 373 429 24,800 -2,066 Descending Oakland Center
Sun 10:14:07 PM 39.6339 -118.6569 245° Southwest 364 419 22,700 -2,115 Descending Oakland Center
Sun 10:15:08 PM 39.5911 -118.7767 245° Southwest 369 425 20,500 -2,293 Descending Oakland Center
Sun 10:16:10 PM 39.5397 -118.9189 245° Southwest 368 423 18,000 -2,195 Descending Oakland Center
Sun 10:17:11 PM 39.4975 -119.0317 244° Southwest 355 409 16,000 -1,869 Descending Oakland Center
Sun 10:18:12 PM 39.4567 -119.1422 244° Southwest 346 398 14,200 -1,475 Descending Oakland Center
Sun 10:19:13 PM 39.4181 -119.2489 245° Southwest 333 383 13,000 -590 Descending Oakland Center
Sun 10:20:14 PM 39.3792 -119.3525 244° Southwest 324 373 13,000 -393 Level Oakland Center
Sun 10:21:15 PM 39.3472 -119.4572 249° West 316 364 12,200 -976 Descending Oakland Center
Sun 10:22:17 PM 39.3289 -119.5661 258° West 313 360 11,000 -1,317 Descending Oakland Center
Sun 10:23:18 PM 39.3103 -119.6669 257° West 302 348 9,500 -1,475 Descending Oakland Center

Login

Don't have an account? Register now (free) for customized features, flight alerts, and more!